Time;durP1;ratioP1;P1;durP2;ratioP2;P2;SDS_P1;SDS_P2;PMS_P1;PMS_P2;Temp;Humidity;BMP_temperature;BMP_pressure;BME280_temperature;BME280_humidity;BME280_pressure;Samples;Min_cycle;Max_cycle;Signal;HPM_P1;HPM_P2
2022/07/02 00:01:46;;;;;;;8.63;2.60;;;;;;;;;;4913813;29;20230;-73
2022/07/02 00:04:16;;;;;;;4.70;2.30;;;;;;;;;;4915431;29;20903;-72
2022/07/02 00:06:44;;;;;;;3.10;2.20;;;;;;;;;;4917929;29;20685;-73
2022/07/02 00:09:11;;;;;;;4.27;2.17;;;;;;;;;;4918645;29;20207;-75
2022/07/02 00:11:38;;;;;;;3.03;2.10;;;;;;;;;;4918090;29;20208;-75
2022/07/02 00:14:06;;;;;;;5.40;2.37;;;;;;;;;;4920315;29;20227;-75
2022/07/02 00:16:33;;;;;;;4.73;2.40;;;;;;;;;;4916400;29;20298;-75
2022/07/02 00:19:01;;;;;;;3.40;2.30;;;;;;;;;;4917655;29;20207;-74
2022/07/02 00:21:29;;;;;;;6.60;2.60;;;;;;;;;;4918681;29;20237;-74
2022/07/02 00:23:57;;;;;;;2.73;2.10;;;;;;;;;;4916851;29;20298;-75
2022/07/02 00:26:27;;;;;;;4.60;2.50;;;;;;;;;;4916480;29;20298;-73
2022/07/02 00:28:56;;;;;;;5.90;2.70;;;;;;;;;;4918851;29;20213;-75
2022/07/02 00:31:24;;;;;;;5.03;2.60;;;;;;;;;;4917114;28;20290;-76
2022/07/02 00:33:51;;;;;;;4.03;2.33;;;;;;;;;;4923229;29;20210;-75
2022/07/02 00:36:22;;;;;;;4.40;2.57;;;;;;;;;;4921915;29;20203;-74
2022/07/02 00:38:51;;;;;;;4.17;2.40;;;;;;;;;;4922911;29;20202;-75
2022/07/02 00:41:19;;;;;;;7.40;2.50;;;;;;;;;;4922256;29;20257;-74
2022/07/02 00:43:46;;;;;;;6.97;3.07;;;;;;;;;;4918710;29;20371;-75
2022/07/02 00:46:15;;;;;;;5.67;2.40;;;;;;;;;;4925031;29;20217;-72
2022/07/02 00:48:44;;;;;;;7.80;2.70;;;;;;;;;;4918946;29;20270;-73
2022/07/02 00:51:11;;;;;;;4.93;2.27;;;;;;;;;;4922196;29;20297;-74
2022/07/02 00:53:38;;;;;;;5.00;2.80;;;;;;;;;;4919415;29;20879;-74
2022/07/02 00:56:07;;;;;;;4.00;2.30;;;;;;;;;;4918863;29;20218;-74
2022/07/02 00:58:34;;;;;;;4.43;2.30;;;;;;;;;;4918944;29;20295;-74
2022/07/02 01:01:02;;;;;;;2.60;2.25;;;;;;;;;;4920255;29;20211;-74
2022/07/02 01:03:30;;;;;;;5.80;2.60;;;;;;;;;;4914878;29;20344;-72
2022/07/02 01:05:58;;;;;;;3.07;2.47;;;;;;;;;;4919460;29;20223;-73
2022/07/02 01:11:12;;;;;;;4.20;2.77;;;;;;;;;;4922172;29;20202;-74
2022/07/02 01:13:40;;;;;;;4.93;2.27;;;;;;;;;;4920585;29;20204;-75
2022/07/02 01:16:07;;;;;;;6.30;2.50;;;;;;;;;;4920284;29;20231;-77
2022/07/02 01:18:35;;;;;;;3.37;1.93;;;;;;;;;;4920398;29;20211;-74
2022/07/02 01:21:02;;;;;;;5.00;2.40;;;;;;;;;;4920597;29;20199;-74
2022/07/02 01:23:31;;;;;;;4.17;2.23;;;;;;;;;;4921386;29;20219;-74
2022/07/02 01:25:58;;;;;;;3.63;2.33;;;;;;;;;;4921843;29;20232;-76
2022/07/02 01:28:25;;;;;;;4.10;2.40;;;;;;;;;;4924601;29;20213;-73
2022/07/02 01:30:53;;;;;;;4.80;2.60;;;;;;;;;;4921701;29;20211;-75
2022/07/02 01:33:20;;;;;;;6.07;2.40;;;;;;;;;;4921118;29;20689;-75
2022/07/02 01:35:47;;;;;;;2.87;2.23;;;;;;;;;;4922266;29;20235;-79
2022/07/02 01:38:15;;;;;;;5.40;2.80;;;;;;;;;;4918868;29;20553;-77
2022/07/02 01:40:43;;;;;;;10.00;2.30;;;;;;;;;;4918847;29;20223;-74
2022/07/02 01:43:10;;;;;;;4.03;2.20;;;;;;;;;;4926063;29;20313;-81
2022/07/02 01:45:37;;;;;;;3.70;2.43;;;;;;;;;;4929289;29;20223;-74
2022/07/02 01:48:05;;;;;;;6.73;2.20;;;;;;;;;;4920749;29;20207;-74
2022/07/02 01:50:35;;;;;;;6.10;2.77;;;;;;;;;;4920584;29;20204;-74
2022/07/02 01:53:02;;;;;;;4.70;2.90;;;;;;;;;;4920652;29;20199;-74
2022/07/02 01:55:29;;;;;;;5.23;2.60;;;;;;;;;;4922066;29;20220;-74
2022/07/02 01:57:58;;;;;;;4.37;2.37;;;;;;;;;;4918770;29;20285;-74
2022/07/02 02:00:25;;;;;;;4.57;2.53;;;;;;;;;;4920039;29;20543;-74
2022/07/02 02:02:53;;;;;;;3.70;2.60;;;;;;;;;;4921506;29;20219;-74
2022/07/02 02:05:20;;;;;;;3.97;2.23;;;;;;;;;;4922883;29;20228;-74
2022/07/02 02:07:47;;;;;;;6.20;2.40;;;;;;;;;;4921715;29;20214;-74
2022/07/02 02:10:14;;;;;;;7.67;2.33;;;;;;;;;;4924330;29;20210;-74
2022/07/02 02:12:41;;;;;;;4.83;2.30;;;;;;;;;;4919774;29;20212;-74
2022/07/02 02:15:11;;;;;;;4.40;2.20;;;;;;;;;;4925151;29;20227;-74
2022/07/02 02:17:38;;;;;;;6.03;2.57;;;;;;;;;;4920909;29;20211;-74
2022/07/02 02:20:05;;;;;;;4.30;2.30;;;;;;;;;;4926280;29;20231;-74
2022/07/02 02:22:33;;;;;;;5.07;2.30;;;;;;;;;;4919405;29;20314;-74
2022/07/02 02:25:00;;;;;;;2.73;2.20;;;;;;;;;;4922167;29;20269;-74
2022/07/02 02:27:27;;;;;;;5.33;2.40;;;;;;;;;;4922619;29;20202;-74
2022/07/02 02:29:54;;;;;;;4.10;2.70;;;;;;;;;;4923471;29;20294;-74
2022/07/02 02:32:23;;;;;;;5.50;2.33;;;;;;;;;;4915720;29;20206;-74
2022/07/02 02:34:50;;;;;;;4.23;2.50;;;;;;;;;;4921098;29;20246;-74
2022/07/02 02:37:17;;;;;;;3.47;2.30;;;;;;;;;;4919257;29;20200;-73
2022/07/02 02:39:44;;;;;;;4.57;2.77;;;;;;;;;;4920851;29;20212;-73
2022/07/02 02:42:11;;;;;;;4.43;2.50;;;;;;;;;;4920754;29;20201;-74
2022/07/02 02:44:38;;;;;;;5.63;3.07;;;;;;;;;;4915269;29;20710;-74
2022/07/02 02:47:06;;;;;;;2.93;2.27;;;;;;;;;;4935711;23;20226;-79
2022/07/02 02:49:34;;;;;;;2.97;2.10;;;;;;;;;;4933215;29;20230;-81
2022/07/02 02:52:01;;;;;;;6.37;2.30;;;;;;;;;;4931927;29;20703;-79
2022/07/02 02:54:28;;;;;;;4.83;2.50;;;;;;;;;;4933039;29;21357;-80
2022/07/02 02:56:55;;;;;;;3.03;2.00;;;;;;;;;;4932100;29;20207;-79
2022/07/02 02:59:23;;;;;;;5.63;2.07;;;;;;;;;;4933595;29;20230;-79
2022/07/02 03:01:50;;;;;;;10.10;2.77;;;;;;;;;;4933424;29;20583;-80
2022/07/02 03:04:17;;;;;;;2.60;2.00;;;;;;;;;;4933806;29;20204;-81
2022/07/02 03:06:45;;;;;;;3.63;2.40;;;;;;;;;;4931776;29;20687;-79
2022/07/02 03:15:20;;;;;;;6.10;2.70;;;;;;;;;;4933652;29;20190;-81
2022/07/02 03:17:47;;;;;;;6.80;2.40;;;;;;;;;;4935743;29;20222;-80
2022/07/02 03:20:14;;;;;;;4.00;2.30;;;;;;;;;;4934521;29;20553;-81
2022/07/02 03:22:43;;;;;;;2.87;2.00;;;;;;;;;;4932838;29;20209;-80
2022/07/02 03:25:11;;;;;;;3.30;2.20;;;;;;;;;;4930204;29;20207;-80
2022/07/02 03:27:38;;;;;;;5.47;2.70;;;;;;;;;;4934622;29;20275;-80
2022/07/02 03:30:06;;;;;;;3.80;2.57;;;;;;;;;;4935794;29;20272;-81
2022/07/02 03:32:33;;;;;;;3.83;2.17;;;;;;;;;;4936567;29;20246;-81
2022/07/02 03:35:01;;;;;;;5.90;2.40;;;;;;;;;;4933700;29;20714;-80
2022/07/02 03:37:28;;;;;;;6.10;2.10;;;;;;;;;;4933059;29;20211;-81
2022/07/02 03:39:57;;;;;;;5.10;2.47;;;;;;;;;;4937937;29;20278;-81
2022/07/02 03:42:25;;;;;;;10.43;2.60;;;;;;;;;;4934709;29;20223;-79
2022/07/02 03:44:52;;;;;;;5.03;2.47;;;;;;;;;;4933002;29;20235;-80
2022/07/02 03:47:19;;;;;;;3.97;2.50;;;;;;;;;;4933802;29;20223;-81
2022/07/02 03:49:46;;;;;;;4.97;2.57;;;;;;;;;;4931113;29;20236;-81
2022/07/02 03:52:14;;;;;;;6.27;2.57;;;;;;;;;;4937161;29;20228;-81
2022/07/02 03:54:41;;;;;;;4.83;2.43;;;;;;;;;;4933589;29;20206;-81
2022/07/02 03:57:09;;;;;;;6.10;2.27;;;;;;;;;;4935991;29;20203;-81
2022/07/02 03:59:37;;;;;;;9.00;1.80;;;;;;;;;;4934356;29;20252;-81
2022/07/02 04:02:04;;;;;;;3.90;1.63;;;;;;;;;;4935315;29;20211;-81
2022/07/02 04:04:31;;;;;;;2.50;1.63;;;;;;;;;;4935811;29;20279;-81
2022/07/02 04:06:58;;;;;;;4.43;1.60;;;;;;;;;;4934380;29;20222;-81
2022/07/02 04:09:26;;;;;;;5.20;1.60;;;;;;;;;;4934523;28;20234;-81
2022/07/02 04:11:53;;;;;;;7.43;1.67;;;;;;;;;;4933672;29;20199;-81
2022/07/02 04:14:22;;;;;;;4.80;1.63;;;;;;;;;;4947851;29;20219;-80
2022/07/02 04:16:49;;;;;;;7.07;1.30;;;;;;;;;;4949324;29;20226;-81
2022/07/02 04:19:16;;;;;;;4.33;1.40;;;;;;;;;;4937777;29;20771;-82
2022/07/02 04:21:43;;;;;;;2.90;1.30;;;;;;;;;;4930346;29;20210;-81
2022/07/02 04:24:11;;;;;;;2.47;1.43;;;;;;;;;;4933513;29;20657;-81
2022/07/02 04:26:38;;;;;;;3.00;1.60;;;;;;;;;;4935856;29;20204;-81
2022/07/02 04:29:05;;;;;;;2.27;1.30;;;;;;;;;;4934167;29;20211;-81
2022/07/02 04:31:33;;;;;;;2.97;1.60;;;;;;;;;;4931821;29;20294;-82
2022/07/02 04:34:00;;;;;;;2.33;1.30;;;;;;;;;;4932219;29;20779;-80
2022/07/02 04:36:28;;;;;;;2.10;1.50;;;;;;;;;;4932864;29;20207;-82
2022/07/02 04:38:55;;;;;;;2.37;1.30;;;;;;;;;;4934473;28;20221;-81
2022/07/02 04:41:22;;;;;;;1.87;1.20;;;;;;;;;;4932428;29;20217;-82
2022/07/02 04:43:49;;;;;;;2.93;1.27;;;;;;;;;;4935627;29;20203;-82
2022/07/02 04:46:16;;;;;;;4.53;1.13;;;;;;;;;;4933944;29;20203;-81
2022/07/02 04:48:44;;;;;;;2.83;1.57;;;;;;;;;;4934995;29;20211;-82
2022/07/02 04:51:12;;;;;;;3.53;1.27;;;;;;;;;;4936621;29;20299;-81
2022/07/02 04:53:39;;;;;;;1.97;1.40;;;;;;;;;;4932890;29;20223;-81
2022/07/02 04:56:06;;;;;;;2.73;1.40;;;;;;;;;;4934642;29;20206;-82
2022/07/02 04:58:33;;;;;;;2.63;1.37;;;;;;;;;;4932756;29;20207;-81
2022/07/02 05:01:00;;;;;;;4.80;1.50;;;;;;;;;;4935970;29;20253;-82
2022/07/02 05:03:27;;;;;;;4.47;1.83;;;;;;;;;;4933886;29;20203;-82
2022/07/02 05:05:56;;;;;;;2.30;1.47;;;;;;;;;;4935348;29;20211;-82
2022/07/02 05:08:26;;;;;;;2.67;1.50;;;;;;;;;;4935930;29;20271;-83
2022/07/02 05:10:53;;;;;;;4.80;1.80;;;;;;;;;;4944790;28;20262;-82
2022/07/02 05:13:21;;;;;;;2.90;1.80;;;;;;;;;;4940428;29;20878;-82
2022/07/02 05:15:48;;;;;;;5.00;1.70;;;;;;;;;;4938833;29;20211;-83
2022/07/02 05:18:16;;;;;;;3.10;1.67;;;;;;;;;;4939108;29;20203;-83
2022/07/02 05:20:43;;;;;;;6.20;1.70;;;;;;;;;;4944910;29;20229;-81
2022/07/02 05:23:12;;;;;;;2.57;1.60;;;;;;;;;;4941270;29;20230;-83
2022/07/02 05:25:39;;;;;;;2.80;1.73;;;;;;;;;;4941054;29;20214;-82
2022/07/02 05:28:06;;;;;;;4.70;1.70;;;;;;;;;;4941369;29;20206;-84
2022/07/02 05:30:33;;;;;;;3.13;1.40;;;;;;;;;;4940926;29;20322;-83
2022/07/02 05:33:00;;;;;;;1.97;1.50;;;;;;;;;;4943745;29;20318;-83
2022/07/02 05:35:27;;;;;;;2.43;1.50;;;;;;;;;;4942877;29;20206;-82
2022/07/02 05:37:55;;;;;;;2.57;1.40;;;;;;;;;;4944344;29;20233;-84
2022/07/02 05:40:23;;;;;;;4.40;1.77;;;;;;;;;;4953083;28;20231;-81
2022/07/02 05:42:50;;;;;;;4.80;1.60;;;;;;;;;;4959227;29;20209;-83
2022/07/02 05:45:18;;;;;;;4.57;1.30;;;;;;;;;;4955393;29;20211;-82
2022/07/02 05:47:45;;;;;;;3.13;1.40;;;;;;;;;;4939283;29;21288;-83
2022/07/02 05:50:12;;;;;;;3.90;1.50;;;;;;;;;;4937349;29;20235;-82
2022/07/02 05:52:39;;;;;;;2.90;1.33;;;;;;;;;;4939277;29;20577;-80
2022/07/02 05:55:06;;;;;;;2.13;1.00;;;;;;;;;;4939123;29;20214;-80
2022/07/02 05:57:35;;;;;;;2.67;1.20;;;;;;;;;;4937319;29;20203;-79
2022/07/02 06:00:03;;;;;;;2.60;1.20;;;;;;;;;;4934548;29;20314;-82
2022/07/02 06:02:30;;;;;;;3.53;1.10;;;;;;;;;;4938863;29;20203;-80
2022/07/02 06:04:57;;;;;;;2.37;1.30;;;;;;;;;;4934474;29;20208;-82
2022/07/02 06:07:39;;;;;;;3.63;1.20;;;;;;;;;;4936479;29;20226;-80
2022/07/02 06:10:07;;;;;;;2.57;1.30;;;;;;;;;;4936109;29;20231;-79
2022/07/02 06:12:36;;;;;;;5.07;1.60;;;;;;;;;;4935987;29;20207;-80
2022/07/02 06:15:03;;;;;;;3.07;1.20;;;;;;;;;;4933264;29;20572;-81
2022/07/02 06:17:31;;;;;;;3.33;1.33;;;;;;;;;;4936440;29;20323;-81
2022/07/02 06:19:58;;;;;;;3.80;1.27;;;;;;;;;;4938643;29;20227;-80
2022/07/02 06:22:26;;;;;;;4.70;1.80;;;;;;;;;;4936344;29;20703;-82
2022/07/02 06:24:55;;;;;;;6.17;1.40;;;;;;;;;;4938425;29;20218;-81
2022/07/02 06:27:22;;;;;;;2.00;1.23;;;;;;;;;;4934244;29;20219;-81
2022/07/02 06:29:51;;;;;;;2.63;1.20;;;;;;;;;;4937351;29;21103;-81
2022/07/02 06:32:18;;;;;;;4.13;1.40;;;;;;;;;;4938661;29;20300;-82
2022/07/02 06:34:46;;;;;;;1.97;1.10;;;;;;;;;;4936531;29;20679;-81
2022/07/02 06:37:13;;;;;;;2.73;0.90;;;;;;;;;;4936367;29;20227;-81
2022/07/02 06:39:40;;;;;;;3.97;1.20;;;;;;;;;;4939711;29;20741;-81
2022/07/02 06:42:26;;;;;;;2.30;1.00;;;;;;;;;;4936684;29;20214;-81
2022/07/02 06:44:56;;;;;;;2.27;1.20;;;;;;;;;;4939261;29;20218;-81
2022/07/02 06:47:23;;;;;;;4.20;1.20;;;;;;;;;;4937067;29;20214;-81
2022/07/02 06:49:51;;;;;;;4.83;1.30;;;;;;;;;;4940872;29;20241;-81
2022/07/02 06:52:18;;;;;;;2.13;1.00;;;;;;;;;;4934618;29;20211;-82
2022/07/02 06:54:46;;;;;;;5.37;1.37;;;;;;;;;;4937170;29;20202;-81
2022/07/02 06:57:13;;;;;;;2.73;0.90;;;;;;;;;;4939683;29;20278;-82
2022/07/02 06:59:40;;;;;;;2.67;0.97;;;;;;;;;;4944288;29;20231;-82
2022/07/02 07:02:09;;;;;;;2.33;1.00;;;;;;;;;;4944468;29;20231;-82
2022/07/02 07:04:37;;;;;;;2.58;0.95;;;;;;;;;;4941455;29;20286;-83
2022/07/02 07:07:08;;;;;;;3.22;1.13;;;;;;;;;;4942249;29;20206;-83
2022/07/02 07:09:35;;;;;;;3.50;1.10;;;;;;;;;;4948144;28;20258;-83
2022/07/02 07:12:04;;;;;;;4.30;1.10;;;;;;;;;;4946841;29;20225;-82
2022/07/02 07:14:31;;;;;;;4.27;0.90;;;;;;;;;;4942718;29;20207;-82
2022/07/02 07:16:59;;;;;;;2.40;0.77;;;;;;;;;;4941086;29;20211;-83
2022/07/02 07:19:30;;;;;;;2.20;0.70;;;;;;;;;;4936603;29;20223;-82
2022/07/02 07:21:57;;;;;;;5.10;1.00;;;;;;;;;;4936039;29;20286;-81
2022/07/02 07:24:24;;;;;;;2.63;0.80;;;;;;;;;;4933183;29;20231;-83
2022/07/02 07:26:51;;;;;;;3.20;0.95;;;;;;;;;;4936370;29;20207;-82
2022/07/02 07:29:19;;;;;;;1.23;0.85;;;;;;;;;;4936113;29;20233;-82
2022/07/02 07:31:46;;;;;;;3.40;0.80;;;;;;;;;;4934922;29;20215;-83
2022/07/02 07:34:13;;;;;;;2.70;0.90;;;;;;;;;;4934181;29;20214;-84
2022/07/02 07:36:42;;;;;;;3.20;0.80;;;;;;;;;;4934002;29;20209;-83
2022/07/02 07:39:09;;;;;;;1.15;0.70;;;;;;;;;;4933928;29;20314;-83
2022/07/02 07:41:36;;;;;;;3.83;1.00;;;;;;;;;;4932131;29;20229;-82
2022/07/02 07:44:04;;;;;;;1.52;0.60;;;;;;;;;;4935667;29;20234;-81
2022/07/02 07:46:31;;;;;;;1.60;0.70;;;;;;;;;;4933962;29;20238;-82
2022/07/02 07:48:59;;;;;;;2.72;0.90;;;;;;;;;;4934680;29;20210;-81
2022/07/02 07:51:26;;;;;;;2.83;0.75;;;;;;;;;;4933990;29;20211;-84
2022/07/02 07:53:54;;;;;;;3.05;0.88;;;;;;;;;;4935689;29;20200;-83
2022/07/02 07:56:22;;;;;;;5.22;0.70;;;;;;;;;;4928258;29;20219;-82
2022/07/02 07:58:49;;;;;;;3.53;0.80;;;;;;;;;;4936671;29;20221;-84
2022/07/02 08:01:16;;;;;;;4.03;0.70;;;;;;;;;;4935440;29;20572;-84
2022/07/02 08:03:44;;;;;;;4.10;0.93;;;;;;;;;;4937228;29;20227;-83
2022/07/02 08:06:11;;;;;;;2.92;0.77;;;;;;;;;;4937510;29;20203;-83
2022/07/02 08:08:38;;;;;;;1.77;0.77;;;;;;;;;;4933543;29;20218;-81
2022/07/02 08:11:07;;;;;;;1.73;0.68;;;;;;;;;;4932262;29;20596;-83
2022/07/02 08:13:34;;;;;;;3.40;0.50;;;;;;;;;;4935301;29;20576;-83
2022/07/02 08:16:01;;;;;;;2.13;0.82;;;;;;;;;;4932605;29;20207;-82
2022/07/02 08:18:28;;;;;;;1.83;0.63;;;;;;;;;;4932024;29;20215;-83
2022/07/02 08:20:55;;;;;;;3.53;0.70;;;;;;;;;;4935752;28;20233;-81
2022/07/02 08:23:23;;;;;;;4.23;0.80;;;;;;;;;;4929332;29;20715;-82
2022/07/02 08:25:50;;;;;;;1.83;0.50;;;;;;;;;;4934656;29;20210;-83
2022/07/02 08:28:19;;;;;;;2.60;0.50;;;;;;;;;;4932147;29;20215;-81
2022/07/02 08:30:46;;;;;;;2.43;0.73;;;;;;;;;;4933809;29;20258;-82
2022/07/02 08:33:15;;;;;;;1.00;0.50;;;;;;;;;;4937330;29;20207;-81
2022/07/02 08:35:44;;;;;;;1.37;0.50;;;;;;;;;;4919385;29;20207;-81
2022/07/02 08:38:11;;;;;;;2.13;0.80;;;;;;;;;;4936535;29;20211;-81
2022/07/02 08:40:38;;;;;;;3.33;0.50;;;;;;;;;;4937105;29;20227;-83
2022/07/02 08:43:07;;;;;;;1.07;0.60;;;;;;;;;;4934927;29;20234;-82
2022/07/02 08:45:36;;;;;;;1.27;0.70;;;;;;;;;;4939728;29;20226;-82
2022/07/02 08:48:07;;;;;;;1.00;0.50;;;;;;;;;;4934722;29;20214;-81
2022/07/02 08:50:35;;;;;;;2.50;0.80;;;;;;;;;;4933759;29;20247;-81
2022/07/02 08:53:02;;;;;;;5.10;0.90;;;;;;;;;;4938829;29;20251;-81
2022/07/02 08:55:30;;;;;;;1.70;0.70;;;;;;;;;;4936374;29;20203;-81
2022/07/02 08:57:57;;;;;;;1.67;0.70;;;;;;;;;;4941447;29;20226;-81
2022/07/02 09:00:25;;;;;;;4.33;0.60;;;;;;;;;;4939851;29;20229;-81
2022/07/02 09:02:55;;;;;;;1.90;0.70;;;;;;;;;;4941099;29;20377;-81
2022/07/02 09:05:22;;;;;;;2.67;0.60;;;;;;;;;;4939282;29;20230;-81
2022/07/02 09:07:50;;;;;;;6.80;0.67;;;;;;;;;;4940147;29;20219;-81
2022/07/02 09:10:17;;;;;;;2.73;0.63;;;;;;;;;;4942733;29;20231;-80
2022/07/02 09:12:46;;;;;;;2.27;0.60;;;;;;;;;;4942337;29;20215;-81
2022/07/02 09:15:13;;;;;;;7.10;0.60;;;;;;;;;;4943288;29;20254;-82
2022/07/02 09:17:42;;;;;;;2.57;0.70;;;;;;;;;;4940778;29;20212;-82
2022/07/02 09:20:11;;;;;;;4.87;0.40;;;;;;;;;;4946503;29;20238;-81
2022/07/02 09:22:42;;;;;;;0.87;0.33;;;;;;;;;;4939199;29;20264;-80
2022/07/02 09:25:10;;;;;;;0.57;0.30;;;;;;;;;;4939900;29;20226;-81
2022/07/02 09:27:37;;;;;;;1.70;0.40;;;;;;;;;;4940332;29;20218;-82
2022/07/02 09:30:05;;;;;;;1.00;0.43;;;;;;;;;;4943807;29;20227;-81
2022/07/02 09:32:38;;;;;;;1.17;0.60;;;;;;;;;;4945909;29;20215;-81
2022/07/02 09:35:06;;;;;;;1.07;0.40;;;;;;;;;;4943624;29;20209;-81
2022/07/02 09:37:37;;;;;;;0.90;0.70;;;;;;;;;;4936629;29;20211;-81
2022/07/02 09:40:04;;;;;;;5.17;0.63;;;;;;;;;;4936751;29;20290;-81
2022/07/02 09:42:32;;;;;;;1.27;0.47;;;;;;;;;;4937380;29;20216;-80
2022/07/02 09:45:00;;;;;;;2.77;0.50;;;;;;;;;;4937354;29;20236;-80
2022/07/02 09:47:31;;;;;;;1.73;0.40;;;;;;;;;;4935961;29;20225;-80
2022/07/02 09:49:58;;;;;;;0.93;0.40;;;;;;;;;;4937819;29;20642;-80
2022/07/02 09:52:25;;;;;;;0.97;0.40;;;;;;;;;;4935822;29;20229;-81
2022/07/02 09:54:54;;;;;;;1.47;0.40;;;;;;;;;;4933512;29;20211;-80
2022/07/02 09:57:21;;;;;;;0.30;0.30;;;;;;;;;;4916317;29;20217;-81
2022/07/02 09:59:48;;;;;;;1.40;0.40;;;;;;;;;;4936848;29;20497;-80
2022/07/02 10:02:21;;;;;;;2.30;0.57;;;;;;;;;;4937782;29;20208;-80
2022/07/02 10:04:51;;;;;;;2.50;0.60;;;;;;;;;;4935764;29;20227;-81
2022/07/02 10:07:19;;;;;;;2.67;0.33;;;;;;;;;;4938390;29;20211;-82
2022/07/02 10:09:46;;;;;;;1.80;0.50;;;;;;;;;;4936945;29;20234;-81
2022/07/02 10:12:16;;;;;;;0.83;0.40;;;;;;;;;;4936061;29;20227;-80
2022/07/02 10:14:45;;;;;;;3.27;0.50;;;;;;;;;;4938510;29;20204;-82
2022/07/02 10:17:13;;;;;;;1.53;0.40;;;;;;;;;;4938437;29;20215;-82
2022/07/02 10:19:41;;;;;;;2.30;0.40;;;;;;;;;;4937937;29;20232;-82
2022/07/02 10:22:08;;;;;;;1.07;0.60;;;;;;;;;;4932384;29;20671;-83
2022/07/02 10:24:36;;;;;;;5.00;0.50;;;;;;;;;;4938223;29;20223;-82
2022/07/02 10:27:04;;;;;;;1.17;0.43;;;;;;;;;;4939788;29;20215;-82
2022/07/02 10:29:32;;;;;;;1.33;0.50;;;;;;;;;;4937952;28;20236;-81
2022/07/02 10:32:05;;;;;;;3.00;0.50;;;;;;;;;;4937268;29;21099;-81
2022/07/02 10:34:39;;;;;;;6.10;0.90;;;;;;;;;;4937061;29;20576;-82
2022/07/02 10:37:06;;;;;;;1.87;0.50;;;;;;;;;;4937086;29;20205;-82
2022/07/02 10:39:39;;;;;;;1.70;0.57;;;;;;;;;;4937266;29;20228;-82
2022/07/02 10:42:06;;;;;;;3.37;0.70;;;;;;;;;;4937341;29;20211;-82
2022/07/02 10:44:39;;;;;;;1.37;0.53;;;;;;;;;;4934070;29;20579;-81
2022/07/02 10:47:06;;;;;;;2.73;0.50;;;;;;;;;;4935911;29;20215;-82
2022/07/02 10:49:33;;;;;;;1.83;0.60;;;;;;;;;;4933245;29;20243;-82
2022/07/02 10:52:03;;;;;;;3.10;0.40;;;;;;;;;;4936323;29;20674;-82
2022/07/02 10:54:33;;;;;;;1.47;0.43;;;;;;;;;;4935844;29;20202;-82
2022/07/02 10:57:01;;;;;;;1.20;0.47;;;;;;;;;;4941759;29;20587;-82
2022/07/02 10:59:29;;;;;;;2.13;0.70;;;;;;;;;;4935283;29;20218;-82
2022/07/02 11:02:05;;;;;;;2.57;0.70;;;;;;;;;;4941125;29;20701;-82
2022/07/02 11:04:32;;;;;;;1.33;0.50;;;;;;;;;;4933119;29;20597;-82
2022/07/02 11:07:09;;;;;;;3.23;0.60;;;;;;;;;;4939496;29;20206;-81
2022/07/02 11:09:46;;;;;;;1.30;0.60;;;;;;;;;;4934388;29;20225;-82
2022/07/02 11:12:14;;;;;;;1.07;0.60;;;;;;;;;;4940952;29;20210;-82
2022/07/02 11:14:53;;;;;;;2.50;0.80;;;;;;;;;;4937699;29;20210;-82
2022/07/02 11:17:23;;;;;;;3.10;0.80;;;;;;;;;;4931523;29;20207;-82
2022/07/02 11:19:54;;;;;;;7.70;0.80;;;;;;;;;;4944465;28;20230;-82
2022/07/02 11:22:21;;;;;;;1.13;0.67;;;;;;;;;;4942577;29;20279;-82
2022/07/02 11:24:49;;;;;;;1.23;0.80;;;;;;;;;;4934646;29;20254;-82
2022/07/02 11:27:16;;;;;;;1.33;1.03;;;;;;;;;;4932620;29;20298;-82
2022/07/02 11:29:52;;;;;;;3.57;0.83;;;;;;;;;;4936881;28;20234;-81
2022/07/02 11:32:21;;;;;;;11.70;7.30;;;;;;;;;;4935418;29;20203;-82
2022/07/02 11:34:58;;;;;;;2.50;0.80;;;;;;;;;;4934794;29;20228;-82
2022/07/02 11:37:25;;;;;;;2.57;0.80;;;;;;;;;;4931368;29;20195;-81
2022/07/02 11:39:52;;;;;;;7.37;3.80;;;;;;;;;;4937178;29;20290;-82
2022/07/02 11:42:19;;;;;;;1.87;0.77;;;;;;;;;;4934100;29;20216;-81
2022/07/02 11:44:49;;;;;;;3.57;0.93;;;;;;;;;;4932723;29;20606;-81
2022/07/02 11:47:16;;;;;;;1.63;0.80;;;;;;;;;;4933417;29;20263;-82
2022/07/02 11:49:46;;;;;;;2.60;0.60;;;;;;;;;;4934728;29;20726;-82
2022/07/02 11:52:13;;;;;;;2.37;0.70;;;;;;;;;;4933989;29;20219;-82
2022/07/02 11:54:42;;;;;;;2.30;0.80;;;;;;;;;;4934891;29;20216;-82
2022/07/02 11:57:09;;;;;;;1.17;0.53;;;;;;;;;;4935522;29;20290;-82
2022/07/02 11:59:36;;;;;;;3.70;0.90;;;;;;;;;;4933488;29;20294;-82
2022/07/02 12:02:03;;;;;;;1.17;0.80;;;;;;;;;;4934074;29;20274;-81
2022/07/02 12:04:30;;;;;;;1.03;0.63;;;;;;;;;;4930593;29;20289;-82
2022/07/02 12:06:59;;;;;;;1.17;0.70;;;;;;;;;;4935701;29;20223;-82
2022/07/02 12:09:27;;;;;;;1.43;0.70;;;;;;;;;;4932212;29;20332;-81
2022/07/02 12:11:56;;;;;;;3.40;0.70;;;;;;;;;;4933739;29;20272;-82
2022/07/02 12:14:27;;;;;;;1.53;0.50;;;;;;;;;;4930817;29;20595;-82
2022/07/02 12:16:54;;;;;;;9.87;6.03;;;;;;;;;;4937448;29;20924;-81
2022/07/02 12:19:24;;;;;;;2.20;1.60;;;;;;;;;;4934421;28;20310;-81
2022/07/02 12:21:52;;;;;;;3.40;0.60;;;;;;;;;;4938443;29;20221;-81
2022/07/02 12:24:22;;;;;;;8.50;4.83;;;;;;;;;;4929988;29;20589;-81
2022/07/02 12:26:50;;;;;;;1.27;1.00;;;;;;;;;;4935597;29;20248;-82
2022/07/02 12:32:06;;;;;;;3.93;1.10;;;;;;;;;;4929019;29;20197;-81
2022/07/02 12:34:38;;;;;;;7.30;0.90;;;;;;;;;;4931012;29;20972;-81
2022/07/02 12:37:05;;;;;;;1.53;0.60;;;;;;;;;;4933133;29;20203;-83
2022/07/02 12:39:41;;;;;;;9.87;2.90;;;;;;;;;;4937814;29;20227;-81
2022/07/02 12:42:15;;;;;;;2.40;0.70;;;;;;;;;;4935504;29;20238;-81
2022/07/02 12:44:51;;;;;;;2.80;0.77;;;;;;;;;;4938419;29;20213;-82
2022/07/02 12:47:23;;;;;;;2.03;1.00;;;;;;;;;;4935384;29;20218;-82
2022/07/02 12:49:53;;;;;;;0.73;0.60;;;;;;;;;;4938676;29;20235;-82
2022/07/02 12:52:20;;;;;;;6.60;0.90;;;;;;;;;;4942107;29;20226;-81
2022/07/02 12:54:49;;;;;;;2.10;0.60;;;;;;;;;;4936509;29;20297;-82
2022/07/02 12:57:21;;;;;;;4.00;1.10;;;;;;;;;;4933878;29;20211;-83
2022/07/02 12:59:49;;;;;;;0.83;0.70;;;;;;;;;;4934191;29;20238;-81
2022/07/02 13:02:17;;;;;;;2.13;0.77;;;;;;;;;;4934271;29;20215;-82
2022/07/02 13:04:45;;;;;;;2.67;0.60;;;;;;;;;;4935971;29;20598;-81
2022/07/02 13:07:14;;;;;;;2.03;1.07;;;;;;;;;;4934280;29;20227;-83
2022/07/02 13:09:41;;;;;;;12.50;5.40;;;;;;;;;;4936102;29;20237;-83
2022/07/02 13:12:11;;;;;;;8.23;0.83;;;;;;;;;;4932134;29;20205;-82
2022/07/02 13:14:38;;;;;;;1.30;0.83;;;;;;;;;;4934735;29;20475;-82
2022/07/02 13:17:06;;;;;;;2.00;0.80;;;;;;;;;;4935739;29;20252;-83
2022/07/02 13:19:34;;;;;;;4.03;1.63;;;;;;;;;;4936440;29;20604;-82
2022/07/02 13:22:01;;;;;;;1.47;0.60;;;;;;;;;;4940664;29;20283;-81
2022/07/02 13:24:28;;;;;;;3.13;1.10;;;;;;;;;;4934430;29;20373;-81
2022/07/02 13:26:55;;;;;;;3.70;1.30;;;;;;;;;;4937705;29;20223;-82
2022/07/02 13:29:24;;;;;;;2.57;1.50;;;;;;;;;;4933235;28;20227;-81
2022/07/02 13:31:51;;;;;;;5.10;1.20;;;;;;;;;;4934060;29;20303;-81
2022/07/02 13:34:18;;;;;;;4.03;0.90;;;;;;;;;;4938194;29;20218;-81
2022/07/02 13:36:45;;;;;;;6.50;2.17;;;;;;;;;;4935120;29;20294;-81
2022/07/02 13:39:13;;;;;;;1.00;0.50;;;;;;;;;;4936532;29;20227;-81
2022/07/02 13:41:40;;;;;;;0.97;0.60;;;;;;;;;;4937950;29;20203;-81
2022/07/02 13:44:07;;;;;;;4.47;0.93;;;;;;;;;;4939493;29;20203;-83
2022/07/02 13:46:36;;;;;;;1.90;0.80;;;;;;;;;;4940968;29;20231;-83
2022/07/02 13:49:03;;;;;;;2.83;0.70;;;;;;;;;;4942429;29;20296;-82
2022/07/02 13:51:30;;;;;;;6.63;1.00;;;;;;;;;;4939403;29;20207;-83
2022/07/02 13:53:58;;;;;;;7.80;0.80;;;;;;;;;;4946594;29;20210;-81
2022/07/02 13:56:26;;;;;;;1.97;0.60;;;;;;;;;;4942137;29;20211;-83
2022/07/02 13:58:54;;;;;;;8.83;1.07;;;;;;;;;;4939046;29;20223;-83
2022/07/02 14:01:21;;;;;;;3.80;0.80;;;;;;;;;;4943364;29;20211;-83
2022/07/02 14:03:49;;;;;;;3.50;0.80;;;;;;;;;;4940364;29;20302;-82
2022/07/02 14:06:17;;;;;;;4.33;0.90;;;;;;;;;;4939309;29;20230;-83
2022/07/02 14:08:44;;;;;;;1.17;0.70;;;;;;;;;;4937342;29;20266;-82
2022/07/02 14:11:11;;;;;;;0.73;0.67;;;;;;;;;;4944988;29;20290;-83
2022/07/02 14:13:39;;;;;;;1.53;0.70;;;;;;;;;;4939307;29;20293;-81
2022/07/02 14:16:06;;;;;;;1.40;0.70;;;;;;;;;;4940137;29;20215;-81
2022/07/02 14:18:33;;;;;;;1.43;0.77;;;;;;;;;;4939041;29;20270;-81
2022/07/02 14:21:04;;;;;;;1.30;0.70;;;;;;;;;;4942094;29;20309;-82
2022/07/02 14:23:31;;;;;;;4.57;0.90;;;;;;;;;;4938448;29;20211;-81
2022/07/02 14:25:59;;;;;;;2.23;0.87;;;;;;;;;;4945081;29;20314;-82
2022/07/02 14:28:26;;;;;;;2.33;0.77;;;;;;;;;;4944093;29;20214;-82
2022/07/02 14:30:54;;;;;;;1.80;0.90;;;;;;;;;;4941411;29;20738;-83
2022/07/02 14:33:21;;;;;;;1.10;0.70;;;;;;;;;;4946740;29;20682;-81
2022/07/02 14:35:50;;;;;;;1.37;0.90;;;;;;;;;;4939511;29;20206;-82
2022/07/02 14:38:18;;;;;;;1.23;0.80;;;;;;;;;;4938743;29;20207;-82
2022/07/02 14:40:46;;;;;;;2.33;0.67;;;;;;;;;;4943981;28;20226;-82
2022/07/02 14:43:13;;;;;;;2.77;0.73;;;;;;;;;;4946753;29;20274;-80
2022/07/02 14:45:40;;;;;;;1.07;0.70;;;;;;;;;;4936531;29;20317;-82
2022/07/02 14:48:08;;;;;;;3.03;1.10;;;;;;;;;;4939090;29;20301;-81
2022/07/02 14:50:37;;;;;;;3.23;0.77;;;;;;;;;;4939803;29;20869;-82
2022/07/02 14:53:04;;;;;;;4.10;1.00;;;;;;;;;;4941315;29;20294;-83
2022/07/02 14:55:33;;;;;;;3.70;0.90;;;;;;;;;;4938833;29;20696;-82
2022/07/02 14:58:00;;;;;;;6.60;0.97;;;;;;;;;;4950141;29;20294;-83
2022/07/02 15:00:27;;;;;;;3.53;0.80;;;;;;;;;;4944597;29;20816;-83